Time;durP1;ratioP1;P1;durP2;ratioP2;P2;SDS_P1;SDS_P2;PMS_P1;PMS_P2;Temp;Humidity;BMP_temperature;BMP_pressure;BME280_temperature;BME280_humidity;BME280_pressure;Samples;Min_cycle;Max_cycle;Signal;HPM_P1;HPM_P2
2022/12/23 00:00:08;;;;;;;7.13;6.63;;;;;;;8.46;100.00;95708.38;4974231;28;20192;-74
2022/12/23 00:02:33;;;;;;;7.00;6.60;;;;;;;8.44;100.00;95711.22;4973742;28;20524;-74
2022/12/23 00:04:59;;;;;;;8.23;7.63;;;;;;;8.43;100.00;95714.06;4974416;28;20184;-73
2022/12/23 00:07:24;;;;;;;10.07;9.47;;;;;;;8.46;100.00;95708.38;4974539;28;20192;-73
2022/12/23 00:09:49;;;;;;;10.63;10.13;;;;;;;8.39;100.00;95708.53;4974357;28;20185;-74
2022/12/23 00:15:05;;;;;;;6.97;6.57;;;;;;;8.39;100.00;95712.97;4974570;28;20187;-73
2022/12/23 00:17:42;;;;;;;6.03;5.43;;;;;;;8.44;100.00;95715.66;4974727;28;20228;-73
2022/12/23 00:20:10;;;;;;;6.20;5.77;;;;;;;8.44;100.00;95713.03;4974244;28;20212;-74
2022/12/23 00:25:38;;;;;;;6.13;5.63;;;;;;;8.38;100.00;95712.19;4974859;28;20698;-73
2022/12/23 00:28:15;;;;;;;6.07;5.57;;;;;;;8.42;100.00;95708.03;4973036;28;20199;-74
2022/12/23 00:30:53;;;;;;;5.77;5.33;;;;;;;8.46;100.00;95701.34;4974437;28;20172;-73
2022/12/23 00:33:27;;;;;;;6.10;5.60;;;;;;;8.42;100.00;95700.22;4974538;28;20192;-74
2022/12/23 00:35:53;;;;;;;5.83;5.30;;;;;;;8.43;100.00;95693.19;4974688;28;20195;-73
2022/12/23 00:43:49;;;;;;;5.00;4.60;;;;;;;8.43;100.00;95695.78;4974399;28;20220;-73
2022/12/23 00:46:14;;;;;;;5.07;4.83;;;;;;;8.41;100.00;95705.69;4974119;28;20200;-73
2022/12/23 00:51:23;;;;;;;4.57;4.17;;;;;;;8.48;100.00;95714.94;4973902;28;20903;-73
2022/12/23 00:53:49;;;;;;;4.53;4.23;;;;;;;8.54;100.00;95721.81;4973501;28;20310;-74
2022/12/23 00:56:14;;;;;;;4.33;4.13;;;;;;;8.52;100.00;95725.72;4973295;28;20287;-74
2022/12/23 00:58:39;;;;;;;3.67;3.57;;;;;;;8.54;100.00;95721.81;4973953;28;20181;-73
2022/12/23 01:06:32;;;;;;;4.00;3.87;;;;;;;8.61;100.00;95735.50;4973454;28;20188;-74
2022/12/23 01:08:58;;;;;;;4.00;3.80;;;;;;;8.58;100.00;95735.97;4973928;28;20193;-74
2022/12/23 01:11:23;;;;;;;4.30;4.10;;;;;;;8.66;100.00;95748.63;4956510;28;20188;-74
2022/12/23 01:13:48;;;;;;;4.60;3.77;;;;;;;8.69;100.00;95750.75;4973832;28;20184;-74
2022/12/23 01:16:14;;;;;;;3.87;3.67;;;;;;;8.77;100.00;95755.56;4973672;28;20196;-74
2022/12/23 01:18:40;;;;;;;5.00;3.57;;;;;;;8.73;100.00;95748.47;4973863;28;20192;-75
2022/12/23 01:21:09;;;;;;;3.83;3.63;;;;;;;8.75;100.00;95752.41;4955906;28;20184;-74
2022/12/23 01:23:34;;;;;;;3.93;3.67;;;;;;;8.74;100.00;95753.47;4973689;28;20192;-74
2022/12/23 01:26:03;;;;;;;3.70;3.47;;;;;;;8.76;100.00;95753.19;4972025;28;20192;-75
2022/12/23 01:28:30;;;;;;;3.83;3.67;;;;;;;8.70;100.00;95756.75;4973902;28;20197;-75
2022/12/23 01:30:56;;;;;;;3.93;3.63;;;;;;;8.74;100.00;95763.13;4973921;28;20180;-75
2022/12/23 01:33:22;;;;;;;4.20;3.90;;;;;;;8.76;100.00;95769.66;4973525;28;20224;-75
2022/12/23 01:35:47;;;;;;;4.33;3.57;;;;;;;8.75;100.00;95769.91;4973377;28;20210;-75
2022/12/23 01:38:13;;;;;;;3.70;3.60;;;;;;;8.74;100.00;95768.34;4973585;28;20631;-75
2022/12/23 01:40:41;;;;;;;3.67;3.40;;;;;;;8.74;100.00;95771.75;4973533;28;20243;-75
2022/12/23 01:43:15;;;;;;;3.13;3.03;;;;;;;8.76;100.00;95768.88;4973466;28;20235;-75
2022/12/23 01:45:41;;;;;;;3.40;3.20;;;;;;;8.67;100.00;95770.31;4973756;28;20196;-75
2022/12/23 01:48:12;;;;;;;4.00;3.70;;;;;;;8.72;100.00;95781.63;4972652;28;20708;-75
2022/12/23 01:50:55;;;;;;;3.20;3.07;;;;;;;8.84;100.00;95775.53;4973808;28;20233;-74
2022/12/23 01:53:34;;;;;;;3.30;3.10;;;;;;;8.79;100.00;95778.06;4956151;28;20192;-75
2022/12/23 01:56:09;;;;;;;4.00;3.80;;;;;;;8.76;100.00;95780.13;4973202;28;20192;-76
2022/12/23 01:58:37;;;;;;;3.63;3.13;;;;;;;8.76;100.00;95782.72;4958817;28;20219;-75
2022/12/23 02:03:52;;;;;;;3.70;3.60;;;;;;;8.78;100.00;95785.09;4972942;28;20179;-75
2022/12/23 02:09:16;;;;;;;3.60;3.47;;;;;;;8.88;100.00;95794.91;4973249;28;20597;-75
2022/12/23 02:12:00;;;;;;;3.47;3.37;;;;;;;8.95;100.00;95804.16;4973253;28;20188;-76
2022/12/23 02:17:56;;;;;;;4.03;3.83;;;;;;;9.02;100.00;95822.31;4973135;28;20248;-75
2022/12/23 02:20:46;;;;;;;3.73;3.53;;;;;;;9.10;100.00;95824.50;4955825;28;20185;-75
2022/12/23 02:23:46;;;;;;;4.03;3.73;;;;;;;9.12;100.00;95823.22;4972983;28;20534;-75
2022/12/23 02:26:29;;;;;;;3.93;3.73;;;;;;;9.17;100.00;95830.34;4970892;28;20193;-76
2022/12/23 02:29:12;;;;;;;4.00;3.70;;;;;;;9.16;100.00;95836.59;4973115;28;20286;-76
2022/12/23 02:32:02;;;;;;;3.47;3.30;;;;;;;9.18;100.00;95826.69;4973058;28;20199;-75
2022/12/23 02:34:45;;;;;;;3.10;3.00;;;;;;;9.23;100.00;95834.63;4963495;28;20179;-76
2022/12/23 02:37:34;;;;;;;5.10;3.67;;;;;;;9.24;100.00;95835.41;4972130;28;20278;-75
2022/12/23 02:40:19;;;;;;;3.43;3.23;;;;;;;9.23;100.00;95839.84;4976578;28;20181;-75
2022/12/23 02:42:59;;;;;;;3.70;3.50;;;;;;;9.32;100.00;95837.59;4976299;28;20177;-75
2022/12/23 02:45:35;;;;;;;3.00;2.73;;;;;;;9.32;100.00;95843.63;4959047;28;20297;-75
2022/12/23 02:48:08;;;;;;;2.97;2.87;;;;;;;9.33;100.00;95847.03;4970859;28;20192;-75
2022/12/23 02:50:37;;;;;;;4.20;4.03;;;;;;;9.33;100.00;95854.88;4976680;28;20172;-75
2022/12/23 02:53:10;;;;;;;3.10;3.00;;;;;;;9.26;100.00;95860.25;4975919;28;20216;-76
2022/12/23 02:55:39;;;;;;;3.40;3.20;;;;;;;9.34;100.00;95859.06;4959009;28;20343;-75
2022/12/23 02:58:09;;;;;;;3.60;3.50;;;;;;;9.34;100.00;95859.88;4956836;29;20209;-75
2022/12/23 03:00:37;;;;;;;4.10;3.80;;;;;;;9.35;100.00;95868.50;4956328;29;20633;-76
2022/12/23 03:03:02;;;;;;;3.77;3.47;;;;;;;9.43;100.00;95876.72;4955312;29;20351;-76
2022/12/23 03:05:40;;;;;;;3.07;2.97;;;;;;;9.49;100.00;95885.41;4939448;29;20213;-75
2022/12/23 03:08:10;;;;;;;3.37;3.23;;;;;;;9.38;100.00;95879.25;4956741;29;20177;-75
2022/12/23 03:10:38;;;;;;;2.87;2.77;;;;;;;9.45;100.00;95886.94;4939562;29;20595;-75
2022/12/23 03:13:21;;;;;;;3.20;3.10;;;;;;;9.43;100.00;95879.34;4956849;29;20185;-75
2022/12/23 03:16:12;;;;;;;3.43;3.23;;;;;;;9.52;100.00;95882.34;4956069;29;20173;-75
2022/12/23 03:18:37;;;;;;;2.87;2.77;;;;;;;9.51;100.00;95878.13;4939266;29;20224;-76
2022/12/23 03:21:07;;;;;;;2.93;2.83;;;;;;;9.55;100.00;95887.88;4956112;29;20655;-76
2022/12/23 03:23:43;;;;;;;3.40;3.27;;;;;;;9.55;100.00;95889.69;4956255;29;20213;-75
2022/12/23 03:26:34;;;;;;;3.40;3.20;;;;;;;9.59;100.00;95898.63;4954839;29;20273;-76
2022/12/23 03:29:11;;;;;;;3.60;3.40;;;;;;;9.57;100.00;95890.25;4955711;29;20244;-77
2022/12/23 03:31:39;;;;;;;3.43;3.33;;;;;;;9.63;100.00;95894.53;4955170;29;20667;-76
2022/12/23 03:34:11;;;;;;;3.10;3.00;;;;;;;9.61;100.00;95896.56;4952724;29;20181;-75
2022/12/23 03:36:56;;;;;;;4.13;4.03;;;;;;;9.62;100.00;95902.59;4955818;29;20607;-75
2022/12/23 03:39:28;;;;;;;3.43;3.33;;;;;;;9.68;100.00;95905.03;4955945;29;20181;-75
2022/12/23 03:42:03;;;;;;;3.83;3.60;;;;;;;9.67;100.00;95905.28;4956170;29;20182;-75
2022/12/23 03:44:35;;;;;;;3.07;2.97;;;;;;;9.68;100.00;95904.25;4955487;28;20173;-76
2022/12/23 03:47:18;;;;;;;3.93;3.80;;;;;;;9.68;100.00;95923.38;4953504;28;20185;-75
2022/12/23 03:49:52;;;;;;;4.20;3.93;;;;;;;9.75;100.00;95923.97;4956062;29;20637;-76
2022/12/23 03:52:29;;;;;;;3.57;3.30;;;;;;;9.78;100.00;95927.94;4955915;29;20185;-75
2022/12/23 03:54:58;;;;;;;4.23;4.13;;;;;;;9.72;100.00;95919.22;4939972;29;20228;-77
2022/12/23 03:57:36;;;;;;;4.20;4.00;;;;;;;9.73;100.00;95906.94;4955631;29;20264;-75
2022/12/23 04:00:02;;;;;;;5.67;5.33;;;;;;;9.69;100.00;95917.09;4955208;29;20220;-75
2022/12/23 04:02:42;;;;;;;5.73;5.53;;;;;;;9.75;100.00;95915.34;4955849;29;20592;-76
2022/12/23 04:05:20;;;;;;;5.73;5.50;;;;;;;9.74;100.00;95909.31;4955329;29;20609;-76
2022/12/23 04:07:51;;;;;;;5.17;3.77;;;;;;;9.76;100.00;95925.53;4955724;29;20211;-75
2022/12/23 04:10:19;;;;;;;4.47;4.27;;;;;;;9.73;100.00;95920.81;4955284;29;20661;-76
2022/12/23 04:12:45;;;;;;;5.00;4.53;;;;;;;9.68;100.00;95928.59;4954120;29;20228;-76
2022/12/23 04:15:10;;;;;;;4.20;4.07;;;;;;;9.70;100.00;95921.28;4954921;29;20628;-76
2022/12/23 04:17:36;;;;;;;5.67;5.47;;;;;;;9.66;100.00;95922.81;4955158;29;20609;-76
2022/12/23 04:20:01;;;;;;;5.93;5.63;;;;;;;9.63;100.00;95925.91;4954863;29;20186;-75
2022/12/23 04:22:27;;;;;;;5.63;5.33;;;;;;;9.69;100.00;95921.53;4938471;29;20582;-76
2022/12/23 04:24:52;;;;;;;5.63;5.43;;;;;;;9.69;100.00;95932.00;4952742;29;20264;-75
2022/12/23 04:27:17;;;;;;;4.93;4.73;;;;;;;9.62;100.00;95921.72;4954818;29;20292;-75
2022/12/23 04:29:43;;;;;;;5.63;5.17;;;;;;;9.66;100.00;95933.25;4955205;29;20678;-76
2022/12/23 04:32:09;;;;;;;4.47;4.27;;;;;;;9.66;100.00;95933.25;4955219;29;20656;-75
2022/12/23 04:34:34;;;;;;;4.83;4.63;;;;;;;9.64;100.00;95937.94;4955063;29;20189;-76
2022/12/23 04:37:00;;;;;;;4.47;4.27;;;;;;;9.66;100.00;95935.09;4954465;29;20674;-75
2022/12/23 04:39:25;;;;;;;4.47;4.27;;;;;;;9.70;100.00;95933.56;4954769;29;20247;-76
2022/12/23 04:41:50;;;;;;;3.80;3.70;;;;;;;9.71;100.00;95932.53;4937315;29;20190;-76
2022/12/23 04:44:16;;;;;;;3.60;3.50;;;;;;;9.75;100.00;95934.41;4954980;29;20297;-75
2022/12/23 04:46:41;;;;;;;3.23;3.13;;;;;;;9.86;100.00;95941.38;4948703;28;20597;-76
2022/12/23 04:49:07;;;;;;;3.90;3.53;;;;;;;9.80;100.00;95952.84;4954518;29;20186;-75
2022/12/23 04:51:32;;;;;;;3.20;3.10;;;;;;;9.81;100.00;95962.25;4954775;29;20193;-75
2022/12/23 04:53:57;;;;;;;3.53;3.43;;;;;;;9.86;100.00;95956.31;4954075;28;20281;-76
2022/12/23 04:56:23;;;;;;;3.77;3.67;;;;;;;9.85;100.00;95967.81;4953259;28;20295;-75
2022/12/23 04:58:48;;;;;;;4.07;3.87;;;;;;;9.82;100.00;95965.66;4954419;29;20181;-76
2022/12/23 05:01:13;;;;;;;3.40;3.30;;;;;;;9.85;100.00;95967.81;4954505;29;20617;-76
2022/12/23 05:03:39;;;;;;;4.77;4.57;;;;;;;9.88;100.00;95981.19;4954044;29;20185;-76
2022/12/23 05:06:05;;;;;;;4.83;4.63;;;;;;;9.85;100.00;95986.91;4954214;29;20181;-75
2022/12/23 05:08:31;;;;;;;5.60;5.30;;;;;;;9.87;100.00;95978.81;4954797;29;20200;-75
2022/12/23 05:10:57;;;;;;;6.50;6.20;;;;;;;9.91;100.00;95987.78;4954355;29;20189;-75
2022/12/23 05:13:23;;;;;;;8.57;8.17;;;;;;;9.90;100.00;95970.50;4954385;29;20198;-75
2022/12/23 05:15:49;;;;;;;8.93;8.53;;;;;;;9.84;100.00;95969.63;4954163;29;20228;-75
2022/12/23 05:18:15;;;;;;;7.23;6.73;;;;;;;9.83;100.00;95983.75;4954244;29;20216;-75
2022/12/23 05:20:41;;;;;;;5.13;4.93;;;;;;;9.79;100.00;95984.47;4954627;29;20220;-75
2022/12/23 05:23:07;;;;;;;5.23;5.03;;;;;;;9.76;100.00;95984.94;4953743;29;20216;-75
2022/12/23 05:25:34;;;;;;;6.17;5.87;;;;;;;9.88;100.00;95981.19;4952301;29;20201;-75
2022/12/23 05:27:59;;;;;;;6.53;6.23;;;;;;;9.83;100.00;95982.94;4953763;29;20200;-75
2022/12/23 05:30:24;;;;;;;6.87;6.57;;;;;;;9.84;100.00;95987.16;4954435;29;20229;-75
2022/12/23 05:32:53;;;;;;;6.07;5.83;;;;;;;9.88;100.00;95989.03;4954042;29;20292;-75
2022/12/23 05:35:19;;;;;;;7.30;6.87;;;;;;;9.84;100.00;95982.72;4953456;29;20185;-75
2022/12/23 05:37:44;;;;;;;6.07;5.83;;;;;;;9.88;100.00;95986.44;4952988;29;20731;-75
2022/12/23 05:40:10;;;;;;;4.57;4.37;;;;;;;9.84;100.00;95982.72;4954111;29;20265;-75
2022/12/23 05:42:35;;;;;;;5.57;5.37;;;;;;;9.83;100.00;95972.47;4954193;29;20545;-75
2022/12/23 05:45:01;;;;;;;5.70;5.37;;;;;;;9.80;100.00;95971.16;4953610;29;20571;-76
2022/12/23 05:47:26;;;;;;;5.33;5.00;;;;;;;9.91;100.00;95978.09;4953046;28;20544;-75
2022/12/23 05:49:51;;;;;;;4.57;4.37;;;;;;;9.87;100.00;95982.22;4954074;29;20528;-75
2022/12/23 05:52:17;;;;;;;5.47;5.27;;;;;;;9.90;100.00;95989.59;4954052;29;20584;-76
2022/12/23 05:54:42;;;;;;;3.83;3.73;;;;;;;9.97;100.00;95997.28;4945908;28;20260;-75
2022/12/23 05:57:07;;;;;;;4.40;4.20;;;;;;;10.02;100.00;96005.22;4972706;28;20615;-75
2022/12/23 05:59:33;;;;;;;4.70;4.50;;;;;;;10.01;100.00;96007.03;4973099;28;20195;-76
2022/12/23 06:01:58;;;;;;;4.37;4.27;;;;;;;9.98;100.00;95993.63;4973158;28;20203;-76
2022/12/23 06:04:23;;;;;;;4.50;4.40;;;;;;;9.97;100.00;95995.44;4972722;28;20240;-76
2022/12/23 06:06:49;;;;;;;5.07;4.87;;;;;;;9.93;100.00;95994.34;4955969;28;20189;-76
2022/12/23 06:09:14;;;;;;;4.13;3.80;;;;;;;9.92;100.00;95989.34;4976686;28;20187;-75
2022/12/23 06:11:39;;;;;;;5.23;4.83;;;;;;;9.86;100.00;96000.81;4977096;28;20188;-75
2022/12/23 06:14:06;;;;;;;4.70;4.50;;;;;;;9.85;100.00;95994.78;4976749;28;20185;-76
2022/12/23 06:16:31;;;;;;;4.73;4.43;;;;;;;9.82;100.00;96002.28;4959101;28;20552;-76
2022/12/23 06:18:57;;;;;;;4.30;4.17;;;;;;;9.80;100.00;95993.91;4976706;28;20192;-76
2022/12/23 06:21:24;;;;;;;4.20;4.07;;;;;;;9.77;100.00;95991.75;4976445;28;20541;-76
2022/12/23 06:23:49;;;;;;;4.87;4.47;;;;;;;9.76;100.00;96004.06;4974380;28;20622;-75
2022/12/23 06:26:15;;;;;;;4.10;4.00;;;;;;;9.77;100.00;96005.63;4976795;28;20272;-77
2022/12/23 06:28:40;;;;;;;3.70;3.50;;;;;;;9.84;100.00;96006.28;4976856;28;20527;-76
2022/12/23 06:31:05;;;;;;;4.27;4.07;;;;;;;9.84;100.00;96001.03;4976554;28;20184;-76
2022/12/23 06:33:31;;;;;;;5.00;4.20;;;;;;;9.87;100.00;96008.41;4976578;28;20195;-75
2022/12/23 06:35:56;;;;;;;4.60;4.40;;;;;;;9.88;100.00;96009.19;4959433;28;20181;-77
2022/12/23 06:38:21;;;;;;;3.83;3.63;;;;;;;9.88;100.00;96011.81;4976480;28;20185;-76
2022/12/23 06:40:47;;;;;;;4.70;4.47;;;;;;;9.80;100.00;96001.75;4976577;28;20180;-76
2022/12/23 06:43:12;;;;;;;6.17;5.83;;;;;;;9.83;100.00;96009.13;4976442;28;20239;-77
2022/12/23 06:45:38;;;;;;;6.27;5.73;;;;;;;9.80;100.00;96002.56;4975742;28;20247;-77
2022/12/23 06:48:04;;;;;;;5.43;5.13;;;;;;;9.90;100.00;95999.28;4975663;28;20647;-76
2022/12/23 06:50:29;;;;;;;6.47;6.07;;;;;;;9.89;100.00;96008.16;4975966;28;20192;-76
2022/12/23 06:52:55;;;;;;;6.70;6.13;;;;;;;9.81;100.00;96009.34;4975920;28;20671;-76
2022/12/23 06:55:20;;;;;;;6.53;6.13;;;;;;;9.79;100.00;96010.63;4975121;28;20270;-77
2022/12/23 06:57:45;;;;;;;6.27;5.93;;;;;;;9.96;100.00;96011.41;4975732;28;20605;-77
2022/12/23 07:00:12;;;;;;;7.10;6.60;;;;;;;9.92;100.00;96013.69;4976673;28;20651;-77
2022/12/23 07:02:37;;;;;;;6.90;6.47;;;;;;;9.93;100.00;96025.75;4975506;28;20262;-77
2022/12/23 07:05:03;;;;;;;7.43;6.93;;;;;;;9.85;100.00;96026.19;4958390;28;20647;-77
2022/12/23 07:07:29;;;;;;;6.77;6.37;;;;;;;9.84;100.00;96027.22;4976105;28;20192;-77
2022/12/23 07:09:55;;;;;;;6.43;5.83;;;;;;;9.84;100.00;96032.44;4976137;28;20283;-77
2022/12/23 07:12:20;;;;;;;6.27;5.87;;;;;;;9.85;100.00;96030.63;4958796;28;20269;-77
2022/12/23 07:14:45;;;;;;;5.93;5.43;;;;;;;9.78;100.00;96027.38;4975427;28;20269;-77
2022/12/23 07:17:11;;;;;;;6.37;5.90;;;;;;;9.74;100.00;96019.22;4975992;28;20219;-77
2022/12/23 07:19:36;;;;;;;5.87;5.47;;;;;;;9.76;100.00;96024.97;4974931;28;20184;-77
2022/12/23 07:22:02;;;;;;;5.77;5.43;;;;;;;9.76;100.00;96032.03;4975783;28;20188;-77
2022/12/23 07:24:27;;;;;;;6.43;6.07;;;;;;;9.76;100.00;96030.22;4974257;28;20624;-77
2022/12/23 07:26:54;;;;;;;7.67;7.27;;;;;;;9.77;100.00;96028.41;4975925;28;20702;-77
2022/12/23 07:29:20;;;;;;;7.90;7.40;;;;;;;9.77;100.00;96025.78;4975793;28;20193;-77
2022/12/23 07:31:45;;;;;;;9.23;8.63;;;;;;;9.77;100.00;96034.44;4958079;28;20195;-77
2022/12/23 07:34:10;;;;;;;7.87;7.37;;;;;;;9.74;100.00;96032.31;4975865;28;20181;-77
2022/12/23 07:36:36;;;;;;;8.70;8.10;;;;;;;9.78;100.00;96045.69;4974363;28;20200;-77
2022/12/23 07:39:01;;;;;;;7.43;7.03;;;;;;;9.80;100.00;96035.78;4956915;28;20180;-77
2022/12/23 07:41:26;;;;;;;6.27;5.97;;;;;;;9.93;100.00;96040.66;4975434;28;20189;-77
2022/12/23 07:43:52;;;;;;;8.17;7.57;;;;;;;9.83;100.00;96049.16;4975312;28;20702;-74
2022/12/23 07:46:17;;;;;;;7.03;6.63;;;;;;;9.87;100.00;96039.81;4974768;28;20199;-76
2022/12/23 07:48:43;;;;;;;8.03;6.07;;;;;;;9.88;100.00;96043.22;4975078;28;20185;-76
2022/12/23 07:51:08;;;;;;;6.07;5.67;;;;;;;10.00;100.00;96044.72;4974675;28;20199;-75
2022/12/23 07:53:33;;;;;;;6.70;6.07;;;;;;;10.03;100.00;96041.59;4974635;28;20276;-74
2022/12/23 07:55:59;;;;;;;5.80;5.50;;;;;;;10.16;100.00;96040.50;4974173;28;20706;-75
2022/12/23 07:58:24;;;;;;;6.50;6.10;;;;;;;10.00;100.00;96043.91;4957480;28;20605;-74
2022/12/23 08:00:50;;;;;;;6.53;6.23;;;;;;;10.01;100.00;96045.50;4975178;28;20547;-74
2022/12/23 08:03:15;;;;;;;7.47;6.87;;;;;;;10.13;100.00;96054.06;4974428;28;20675;-74
2022/12/23 08:05:41;;;;;;;8.20;7.80;;;;;;;10.01;100.00;96055.97;4974839;28;20188;-74
2022/12/23 08:08:06;;;;;;;8.33;7.57;;;;;;;9.95;100.00;96055.13;4976007;28;20220;-74
2022/12/23 08:10:31;;;;;;;8.47;7.97;;;;;;;9.95;100.00;96059.56;4974416;28;20213;-74
2022/12/23 08:12:59;;;;;;;7.63;7.13;;;;;;;9.97;100.00;96073.22;4957477;28;20528;-75
2022/12/23 08:15:24;;;;;;;6.87;6.37;;;;;;;9.99;100.00;96065.88;4974540;28;20200;-74
2022/12/23 08:17:50;;;;;;;6.97;6.23;;;;;;;10.03;100.00;96073.00;4974893;28;20212;-73
2022/12/23 08:20:15;;;;;;;6.77;6.30;;;;;;;10.03;100.00;96080.06;4974641;28;20193;-74
2022/12/23 08:22:40;;;;;;;6.13;5.73;;;;;;;9.98;100.00;96078.19;4973017;28;20211;-74
2022/12/23 08:25:06;;;;;;;6.40;6.00;;;;;;;10.10;100.00;96078.09;4974936;28;20188;-74
2022/12/23 08:27:31;;;;;;;6.10;5.70;;;;;;;10.05;100.00;96070.16;4974700;28;20492;-74
2022/12/23 08:29:57;;;;;;;5.83;5.50;;;;;;;10.07;100.00;96073.34;4974371;28;20627;-74
2022/12/23 08:32:26;;;;;;;5.07;4.87;;;;;;;10.05;100.00;96078.03;4974274;28;20180;-75
2022/12/23 08:34:51;;;;;;;7.37;6.93;;;;;;;10.06;100.00;96071.75;4974668;28;20199;-75
2022/12/23 08:37:16;;;;;;;7.33;6.93;;;;;;;10.08;100.00;96074.94;4976559;28;20212;-74
2022/12/23 08:39:42;;;;;;;7.00;6.60;;;;;;;10.18;100.00;96074.31;4971845;28;20189;-74
2022/12/23 08:42:08;;;;;;;7.13;6.73;;;;;;;10.18;100.00;96079.53;4968608;28;20180;-74
2022/12/23 08:44:33;;;;;;;6.93;6.53;;;;;;;10.14;100.00;96067.94;4967055;28;20647;-75
2022/12/23 08:46:58;;;;;;;6.17;5.87;;;;;;;10.18;100.00;96064.63;4969200;28;20288;-75
2022/12/23 08:49:24;;;;;;;6.83;6.43;;;;;;;10.20;100.00;96059.13;4966777;28;20193;-75
2022/12/23 08:51:49;;;;;;;5.17;4.90;;;;;;;10.24;100.00;96053.19;4974080;28;20200;-75
2022/12/23 08:54:16;;;;;;;6.73;6.40;;;;;;;10.16;100.00;96053.59;4973851;28;20236;-74
2022/12/23 08:56:41;;;;;;;6.70;6.40;;;;;;;10.20;100.00;96056.50;4973704;28;20197;-74
2022/12/23 08:59:14;;;;;;;6.27;5.97;;;;;;;10.15;100.00;96057.22;4974011;28;20191;-74
2022/12/23 09:01:40;;;;;;;7.37;6.77;;;;;;;10.10;100.00;96056.34;4968696;28;20180;-74
2022/12/23 09:04:06;;;;;;;6.43;6.07;;;;;;;10.17;100.00;96043.91;4970871;28;20644;-74
2022/12/23 09:06:37;;;;;;;6.93;6.53;;;;;;;10.15;100.00;96056.41;4969588;28;20185;-73
2022/12/23 09:09:04;;;;;;;6.67;6.20;;;;;;;10.31;100.00;96053.78;4965794;28;20181;-73
2022/12/23 09:11:29;;;;;;;7.30;6.90;;;;;;;10.24;100.00;96049.78;4953983;28;20673;-73
2022/12/23 09:13:57;;;;;;;7.47;7.07;;;;;;;10.35;100.00;96060.16;4973476;28;20184;-74
2022/12/23 09:16:23;;;;;;;7.10;6.70;;;;;;;10.37;100.00;96072.97;4955756;28;20219;-74
2022/12/23 09:18:48;;;;;;;6.40;6.10;;;;;;;10.31;100.00;96077.34;4973821;28;20593;-74
2022/12/23 09:21:17;;;;;;;6.87;6.47;;;;;;;10.31;100.00;96077.34;4972915;28;20670;-73
2022/12/23 09:23:42;;;;;;;6.07;5.57;;;;;;;10.39;100.00;96074.34;4972077;28;20184;-74
2022/12/23 09:26:18;;;;;;;7.17;6.70;;;;;;;10.42;100.00;96062.59;4973321;28;20670;-73
2022/12/23 09:28:43;;;;;;;6.40;6.10;;;;;;;10.50;100.00;96071.84;4973902;28;20551;-74
2022/12/23 09:31:10;;;;;;;6.87;6.37;;;;;;;10.42;100.00;96055.50;4972952;28;20204;-74
2022/12/23 09:33:36;;;;;;;7.30;6.80;;;;;;;10.43;100.00;96051.06;4956601;28;20513;-74
2022/12/23 09:36:02;;;;;;;6.93;6.47;;;;;;;10.46;100.00;96058.44;4973784;28;20268;-74
2022/12/23 09:38:28;;;;;;;7.00;6.60;;;;;;;10.43;100.00;96049.22;4973353;28;20247;-73
2022/12/23 09:41:01;;;;;;;6.47;6.07;;;;;;;10.53;100.00;96059.06;4973595;28;20267;-74
2022/12/23 09:43:45;;;;;;;7.27;6.87;;;;;;;10.51;100.00;96055.88;4976110;28;20242;-75
2022/12/23 09:46:19;;;;;;;6.63;6.23;;;;;;;10.62;100.00;96054.16;4976827;28;20192;-74
2022/12/23 09:49:02;;;;;;;7.13;6.73;;;;;;;10.59;100.00;96044.97;4977803;28;20196;-74
2022/12/23 09:51:29;;;;;;;7.20;6.80;;;;;;;10.66;100.00;96036.91;4977299;28;20263;-74
2022/12/23 09:54:16;;;;;;;6.87;5.73;;;;;;;10.66;100.00;96034.28;4976783;28;20241;-73
2022/12/23 09:56:57;;;;;;;6.20;5.90;;;;;;;10.64;100.00;96031.16;4976648;28;20568;-73
2022/12/23 09:59:41;;;;;;;6.60;6.10;;;;;;;10.64;100.00;96037.19;4977178;28;20227;-73
2022/12/23 10:02:37;;;;;;;5.57;5.27;;;;;;;10.72;100.00;96031.50;4961893;28;20180;-73
2022/12/23 10:05:14;;;;;;;5.53;5.23;;;;;;;10.74;100.00;96026.00;4977365;28;20208;-73
2022/12/23 10:07:47;;;;;;;4.70;4.30;;;;;;;10.60;100.00;96028.19;4981552;28;20550;-73
2022/12/23 10:10:19;;;;;;;5.47;5.17;;;;;;;10.67;100.00;96017.53;4965923;28;20232;-74
2022/12/23 10:12:48;;;;;;;5.70;5.43;;;;;;;10.73;100.00;96013.94;4978027;28;20180;-75
2022/12/23 10:15:36;;;;;;;5.37;5.10;;;;;;;10.67;100.00;96014.91;4976577;28;20196;-74
2022/12/23 10:18:09;;;;;;;4.17;3.90;;;;;;;10.65;100.00;96009.13;4977046;28;20714;-72
2022/12/23 10:20:47;;;;;;;4.57;4.37;;;;;;;10.68;100.00;96019.13;4977168;28;20176;-74
2022/12/23 10:23:16;;;;;;;5.13;4.83;;;;;;;10.63;100.00;96013.84;4974564;28;20574;-75
2022/12/23 10:25:50;;;;;;;4.10;3.97;;;;;;;10.62;100.00;96020.09;4959468;28;20196;-72
2022/12/23 10:28:16;;;;;;;5.27;5.07;;;;;;;10.60;100.00;96016.94;4976622;28;20196;-74
2022/12/23 10:30:49;;;;;;;4.00;3.70;;;;;;;10.74;100.00;95999.81;4977024;28;20204;-72
2022/12/23 10:33:53;;;;;;;4.03;3.77;;;;;;;10.90;100.00;95998.13;4978492;28;20173;-71
2022/12/23 10:36:30;;;;;;;4.43;4.17;;;;;;;10.91;100.00;95994.47;4976334;28;20203;-73
2022/12/23 10:39:19;;;;;;;5.43;5.10;;;;;;;11.00;100.00;95993.75;4976337;28;20288;-73
2022/12/23 10:42:06;;;;;;;7.03;6.63;;;;;;;11.00;100.00;95988.50;4976632;28;20185;-72
2022/12/23 10:45:04;;;;;;;5.67;5.47;;;;;;;10.97;100.00;95986.41;4976530;28;20184;-72
2022/12/23 10:47:45;;;;;;;8.27;7.87;;;;;;;11.13;100.00;95987.31;4962849;28;20576;-73
2022/12/23 10:50:46;;;;;;;3.47;3.37;;;;;;;11.05;100.00;95988.56;4983096;28;20247;-72
2022/12/23 10:53:19;;;;;;;4.13;3.93;;;;;;;11.23;100.00;95977.72;4975644;28;20173;-74
2022/12/23 10:55:47;;;;;;;3.40;3.30;;;;;;;11.15;100.00;95978.16;4955884;29;20239;-73
2022/12/23 10:58:17;;;;;;;3.77;3.57;;;;;;;11.05;100.00;95970.19;4956482;29;20209;-73
2022/12/23 11:00:46;;;;;;;5.90;5.60;;;;;;;11.04;100.00;95959.97;4956996;29;20201;-72
2022/12/23 11:03:17;;;;;;;5.53;5.33;;;;;;;11.04;100.00;95965.19;4957176;29;20185;-74
2022/12/23 11:05:45;;;;;;;5.70;5.50;;;;;;;11.00;100.00;95958.88;4960075;28;20173;-73
2022/12/23 11:08:11;;;;;;;6.40;5.90;;;;;;;11.06;100.00;95960.50;4975430;28;20191;-73
2022/12/23 11:10:38;;;;;;;8.63;8.13;;;;;;;11.08;100.00;95955.81;4976059;28;20193;-72
2022/12/23 11:13:04;;;;;;;11.60;11.03;;;;;;;11.05;100.00;95949.22;4957667;28;20199;-73
2022/12/23 11:15:38;;;;;;;7.00;6.53;;;;;;;11.02;100.00;95952.34;4973171;28;20185;-72
2022/12/23 11:18:15;;;;;;;6.47;6.07;;;;;;;11.01;100.00;95958.63;4975766;28;20211;-74
2022/12/23 11:20:43;;;;;;;5.33;5.03;;;;;;;11.04;100.00;95957.34;4956886;28;20195;-73
2022/12/23 11:23:33;;;;;;;6.13;5.73;;;;;;;11.03;100.00;95943.47;4976083;28;20195;-73
2022/12/23 11:26:03;;;;;;;7.70;7.20;;;;;;;11.14;100.00;95931.22;4976119;28;20251;-73
2022/12/23 11:28:30;;;;;;;6.37;5.97;;;;;;;11.12;100.00;95936.72;4975640;28;20577;-73
2022/12/23 11:31:10;;;;;;;5.90;5.50;;;;;;;11.28;100.00;95927.13;4975951;28;20195;-72
2022/12/23 11:34:00;;;;;;;5.93;5.63;;;;;;;11.27;100.00;95925.53;4975018;28;20315;-73
2022/12/23 11:36:28;;;;;;;5.33;5.13;;;;;;;11.35;100.00;95924.28;4951889;28;20239;-73
2022/12/23 11:39:18;;;;;;;5.70;5.40;;;;;;;11.35;100.00;95917.19;4956646;28;20181;-74
2022/12/23 11:41:48;;;;;;;5.40;5.07;;;;;;;11.26;100.00;95902.97;4974166;28;20177;-73
2022/12/23 11:44:16;;;;;;;5.47;5.17;;;;;;;11.30;100.00;95888.31;4979110;28;20288;-74
2022/12/23 11:46:41;;;;;;;5.87;5.57;;;;;;;11.41;100.00;95897.81;4974860;28;20551;-74
2022/12/23 11:49:30;;;;;;;6.73;6.23;;;;;;;11.42;100.00;95888.13;4975166;28;20184;-74
2022/12/23 11:52:00;;;;;;;5.90;5.60;;;;;;;11.47;100.00;95901.28;4957986;28;20181;-74
2022/12/23 11:54:26;;;;;;;5.97;5.67;;;;;;;11.50;100.00;95898.91;4975726;28;20707;-74
2022/12/23 11:56:52;;;;;;;5.47;5.17;;;;;;;11.60;100.00;95896.34;4974336;28;20204;-74
2022/12/23 11:59:31;;;;;;;5.67;5.37;;;;;;;11.53;100.00;95893.19;4975039;28;20181;-73
2022/12/23 12:02:03;;;;;;;4.90;4.70;;;;;;;11.56;100.00;95892.66;4975187;28;20196;-73
2022/12/23 12:04:32;;;;;;;5.23;5.03;;;;;;;11.52;100.00;95890.81;4975141;28;20176;-73
2022/12/23 12:06:59;;;;;;;5.97;5.67;;;;;;;11.50;100.00;95871.88;4972738;28;20199;-73
2022/12/23 12:09:27;;;;;;;4.93;4.73;;;;;;;11.56;100.00;95870.88;4974501;28;20207;-73